createdAt,value
2023-01-29T00:01:08.269Z,11.43
2023-01-29T00:04:09.694Z,12.25
2023-01-29T00:07:11.320Z,12.45
2023-01-29T00:10:12.765Z,11.18
2023-01-29T00:13:14.334Z,12.73
2023-01-29T00:16:15.775Z,12.40
2023-01-29T00:19:17.194Z,12.48
2023-01-29T00:22:18.916Z,12.43
2023-01-29T00:25:20.326Z,13.05
2023-01-29T00:28:21.762Z,12.85
2023-01-29T00:31:25.185Z,14.15
2023-01-29T00:37:28.083Z,13.98
2023-01-29T00:40:30.029Z,13.82
2023-01-29T00:43:31.732Z,13.15
2023-01-29T00:46:33.692Z,13.57
2023-01-29T00:49:35.171Z,11.73
2023-01-29T00:52:36.788Z,13.15
2023-01-29T00:55:38.234Z,12.25
2023-01-29T00:58:39.692Z,11.63
2023-01-29T01:01:41.134Z,13.13
2023-01-29T01:04:42.610Z,12.38
2023-01-29T01:07:50.075Z,12.73
2023-01-29T01:11:02.644Z,12.05
2023-01-29T01:14:04.116Z,12.68
2023-01-29T01:17:05.542Z,12.40
2023-01-29T01:20:07.498Z,12.15
2023-01-29T01:23:08.940Z,12.05
2023-01-29T01:26:10.509Z,11.82
2023-01-29T01:29:12.358Z,11.95
2023-01-29T01:32:14.469Z,11.73
2023-01-29T01:35:16.104Z,12.25
2023-01-29T01:38:17.626Z,13.15
2023-01-29T01:41:21.186Z,12.23
2023-01-29T01:44:53.665Z,12.27
2023-01-29T01:48:04.024Z,11.70
2023-01-29T01:51:05.818Z,11.43
2023-01-29T01:54:12.660Z,12.23
2023-01-29T01:57:20.406Z,11.63
2023-01-29T02:00:25.269Z,12.25
2023-01-29T02:03:28.484Z,12.30
2023-01-29T02:06:31.773Z,13.07
2023-01-29T02:09:40.374Z,12.45
2023-01-29T02:12:42.868Z,12.70
2023-01-29T02:15:45.646Z,13.63
2023-01-29T02:18:47.340Z,11.95
2023-01-29T02:22:00.848Z,13.27
2023-01-29T02:28:36.363Z,12.25
2023-01-29T02:31:46.156Z,11.75
2023-01-29T02:35:20.433Z,12.82
2023-01-29T02:38:28.540Z,12.27
2023-01-29T02:41:46.380Z,12.65
2023-01-29T02:44:56.531Z,12.23
2023-01-29T02:48:00.263Z,12.27
2023-01-29T02:51:07.542Z,12.27
2023-01-29T02:54:27.875Z,12.55
2023-01-29T02:57:34.653Z,13.38
2023-01-29T03:00:41.817Z,12.68
2023-01-29T03:03:49.363Z,12.23
2023-01-29T03:07:03.102Z,12.82
2023-01-29T03:10:12.809Z,13.10
2023-01-29T03:13:41.875Z,12.02
2023-01-29T03:16:51.730Z,11.55
2023-01-29T03:19:54.248Z,11.63
2023-01-29T03:23:01.775Z,12.70
2023-01-29T03:26:06.070Z,12.93
2023-01-29T03:29:09.687Z,13.05
2023-01-29T03:32:13.235Z,12.45
2023-01-29T03:35:17.361Z,12.38
2023-01-29T03:38:20.195Z,13.80
2023-01-29T03:41:32.618Z,13.68
2023-01-29T03:44:34.181Z,12.52
2023-01-29T03:47:49.633Z,12.85
2023-01-29T03:51:11.933Z,12.90
2023-01-29T03:54:35.021Z,12.85
2023-01-29T03:57:53.314Z,12.20
2023-01-29T04:01:03.089Z,12.32
2023-01-29T04:04:15.012Z,12.35
2023-01-29T04:07:20.271Z,11.77
2023-01-29T04:10:28.303Z,10.82
2023-01-29T04:13:31.823Z,12.45
2023-01-29T04:16:38.315Z,11.27
2023-01-29T04:19:50.451Z,12.00
2023-01-29T04:22:52.196Z,11.55
2023-01-29T04:26:13.351Z,12.18
2023-01-29T04:30:05.618Z,12.57
2023-01-29T04:33:42.746Z,11.52
2023-01-29T04:37:09.746Z,11.70
2023-01-29T04:40:25.674Z,12.05
2023-01-29T04:43:38.540Z,11.95
2023-01-29T04:47:02.834Z,11.20
2023-01-29T04:50:16.755Z,12.25
2023-01-29T04:53:48.322Z,11.57
2023-01-29T04:57:10.717Z,11.15
2023-01-29T05:00:25.979Z,12.40
2023-01-29T05:03:29.718Z,12.45
2023-01-29T05:06:32.233Z,13.50
2023-01-29T05:09:34.425Z,11.68
2023-01-29T05:12:37.701Z,12.80
2023-01-29T05:15:42.563Z,12.23
2023-01-29T05:18:44.282Z,12.52
2023-01-29T05:21:48.603Z,12.13
2023-01-29T05:24:50.525Z,11.95
2023-01-29T05:27:52.894Z,11.93
2023-01-29T05:30:56.448Z,11.70
2023-01-29T05:33:57.983Z,11.98
2023-01-29T05:36:59.385Z,12.02
2023-01-29T05:40:00.855Z,11.93
2023-01-29T05:43:02.303Z,12.10
2023-01-29T05:46:03.836Z,11.50
2023-01-29T05:49:06.029Z,11.80
2023-01-29T05:52:07.515Z,10.50
2023-01-29T05:55:09.532Z,11.32
2023-01-29T05:58:11.394Z,11.45
2023-01-29T06:01:17.431Z,11.77
2023-01-29T06:04:18.865Z,11.88
2023-01-29T06:07:20.303Z,11.98
2023-01-29T06:10:21.964Z,11.63
2023-01-29T06:13:23.749Z,12.02
2023-01-29T06:16:25.328Z,10.60
2023-01-29T06:19:26.793Z,10.52
2023-01-29T06:22:28.255Z,10.57
2023-01-29T06:25:29.674Z,11.32
2023-01-29T06:28:31.475Z,9.85
2023-01-29T06:31:38.884Z,10.73
2023-01-29T06:34:40.661Z,11.07
2023-01-29T06:37:42.128Z,10.75
2023-01-29T06:40:43.538Z,10.90
2023-01-29T06:43:45.939Z,10.75
2023-01-29T06:46:47.350Z,11.52
2023-01-29T06:49:49.198Z,12.05
2023-01-29T06:52:50.634Z,12.57
2023-01-29T06:55:53.011Z,13.30
2023-01-29T06:58:54.551Z,12.88
2023-01-29T07:01:56.158Z,11.73
2023-01-29T07:04:57.671Z,13.48
2023-01-29T07:07:59.346Z,12.98
2023-01-29T07:11:01.679Z,13.70
2023-01-29T07:14:03.603Z,13.82
2023-01-29T07:17:05.117Z,14.40
2023-01-29T07:20:07.295Z,14.80
2023-01-29T07:23:17.831Z,15.45
2023-01-29T07:26:19.388Z,15.13
2023-01-29T07:29:20.812Z,16.60
2023-01-29T07:32:22.701Z,17.95
2023-01-29T07:35:24.113Z,16.80
2023-01-29T07:38:25.805Z,17.60
2023-01-29T07:41:27.292Z,17.92
2023-01-29T07:44:29.445Z,18.30
2023-01-29T07:47:30.873Z,19.35
2023-01-29T07:50:34.961Z,20.00
2023-01-29T07:53:36.365Z,19.63
2023-01-29T07:56:37.789Z,22.90
2023-01-29T07:59:39.214Z,21.95
2023-01-29T08:02:41.726Z,21.33
2023-01-29T08:05:44.460Z,20.93
2023-01-29T08:08:45.941Z,19.77
2023-01-29T08:11:47.382Z,20.73
2023-01-29T08:14:48.898Z,22.30
2023-01-29T08:17:57.730Z,21.92
2023-01-29T08:21:04.102Z,22.38
2023-01-29T08:24:14.531Z,20.30
2023-01-29T08:27:15.980Z,21.13
2023-01-29T08:30:18.563Z,22.80
2023-01-29T08:33:29.740Z,24.00
2023-01-29T08:36:35.136Z,22.80
2023-01-29T08:39:36.585Z,21.65
2023-01-29T08:42:38.078Z,23.92
2023-01-29T08:45:43.782Z,25.35
2023-01-29T08:48:45.249Z,25.85
2023-01-29T08:51:46.711Z,23.92
2023-01-29T08:54:48.120Z,26.00
2023-01-29T08:57:49.574Z,25.63
2023-01-29T09:00:51.048Z,26.70
2023-01-29T09:03:52.565Z,27.27
2023-01-29T09:06:54.035Z,25.45
2023-01-29T09:09:55.519Z,25.35
2023-01-29T09:12:56.975Z,27.10
2023-01-29T09:15:59.972Z,27.95
2023-01-29T09:19:01.424Z,25.83
2023-01-29T09:22:02.896Z,28.80
2023-01-29T09:25:04.818Z,29.30
2023-01-29T09:28:06.378Z,28.83
2023-01-29T09:31:07.932Z,26.85
2023-01-29T09:34:09.437Z,26.33
2023-01-29T09:37:10.905Z,28.42
2023-01-29T09:40:28.890Z,28.05
2023-01-29T09:43:39.580Z,26.67
2023-01-29T09:46:44.647Z,27.90
2023-01-29T09:49:51.261Z,26.95
2023-01-29T09:52:58.717Z,26.27
2023-01-29T09:56:24.869Z,26.10
2023-01-29T09:59:31.611Z,27.40
2023-01-29T10:06:51.090Z,29.92
2023-01-29T10:10:15.683Z,27.83
2023-01-29T10:13:32.051Z,28.83
2023-01-29T10:16:44.084Z,28.10
2023-01-29T10:19:45.483Z,25.58
2023-01-29T10:23:26.265Z,28.02
2023-01-29T10:26:29.030Z,30.92
2023-01-29T10:29:32.411Z,33.70
2023-01-29T10:32:37.106Z,32.25
2023-01-29T10:35:43.010Z,28.85
2023-01-29T10:38:47.680Z,30.52
2023-01-29T10:42:21.557Z,28.42
2023-01-29T10:45:53.334Z,27.35
2023-01-29T10:49:25.428Z,28.02
2023-01-29T10:52:43.240Z,28.83
2023-01-29T10:56:17.376Z,28.63
2023-01-29T10:59:23.600Z,36.22
2023-01-29T11:02:26.271Z,35.75
2023-01-29T11:05:49.633Z,34.28
2023-01-29T11:09:20.071Z,34.17
2023-01-29T11:12:30.892Z,30.27
2023-01-29T11:15:33.246Z,28.08
2023-01-29T11:18:58.699Z,26.95
2023-01-29T11:22:01.572Z,27.17
2023-01-29T11:25:21.447Z,26.83
2023-01-29T11:28:40.205Z,28.48
2023-01-29T11:31:41.870Z,26.42
2023-01-29T11:34:58.401Z,28.25
2023-01-29T11:38:16.656Z,24.77
2023-01-29T11:41:18.129Z,26.23
2023-01-29T11:44:34.348Z,27.00
2023-01-29T11:47:35.912Z,24.95
2023-01-29T11:50:37.456Z,23.88
2023-01-29T11:53:43.526Z,25.23
2023-01-29T11:56:47.191Z,23.73
2023-01-29T11:59:52.091Z,25.08
2023-01-29T12:03:16.147Z,23.05
2023-01-29T12:06:32.763Z,23.45
2023-01-29T12:09:34.286Z,22.83
2023-01-29T12:12:41.598Z,23.50
2023-01-29T12:15:43.052Z,24.27
2023-01-29T12:19:13.141Z,22.30
2023-01-29T12:22:23.737Z,23.83
2023-01-29T12:25:50.289Z,24.20
2023-01-29T12:29:17.733Z,24.33
2023-01-29T12:32:39.197Z,27.52
2023-01-29T12:36:02.174Z,28.33
2023-01-29T12:39:04.386Z,38.40
2023-01-29T12:42:15.260Z,25.15
2023-01-29T12:45:23.572Z,25.48
2023-01-29T12:48:33.869Z,25.73
2023-01-29T12:51:46.616Z,24.92
2023-01-29T12:54:53.231Z,25.20
2023-01-29T12:58:09.205Z,23.38
2023-01-29T13:01:36.294Z,25.20
2023-01-29T13:04:48.274Z,23.73
2023-01-29T13:07:57.721Z,22.10
2023-01-29T13:11:04.490Z,24.00
2023-01-29T13:14:48.749Z,22.63
2023-01-29T13:17:58.805Z,20.95
2023-01-29T13:21:01.097Z,22.00
2023-01-29T13:24:07.256Z,21.55
2023-01-29T13:27:20.977Z,23.17
2023-01-29T13:33:33.363Z,22.00
2023-01-29T13:36:40.892Z,22.50
2023-01-29T13:39:49.572Z,23.23
2023-01-29T13:42:53.286Z,22.90
2023-01-29T13:45:55.025Z,23.38
2023-01-29T13:48:56.673Z,22.30
2023-01-29T13:51:59.586Z,22.67
2023-01-29T13:55:05.059Z,22.63
2023-01-29T13:58:09.781Z,25.05
2023-01-29T14:01:11.271Z,25.92
2023-01-29T14:04:18.730Z,22.75
2023-01-29T14:07:49.395Z,23.00
2023-01-29T14:11:16.718Z,21.25
2023-01-29T14:14:47.631Z,21.65
2023-01-29T14:18:03.217Z,21.48
2023-01-29T14:21:25.408Z,22.52
2023-01-29T14:24:31.026Z,22.38
2023-01-29T14:27:33.464Z,22.58
2023-01-29T14:30:35.296Z,23.15
2023-01-29T14:33:41.057Z,24.70
2023-01-29T14:36:46.194Z,25.35
2023-01-29T14:39:48.827Z,23.90
2023-01-29T14:42:56.916Z,23.90
2023-01-29T14:46:33.211Z,23.75
2023-01-29T14:49:54.523Z,24.17
2023-01-29T14:53:06.798Z,25.00
2023-01-29T14:56:27.215Z,24.20
2023-01-29T14:59:44.539Z,29.92
2023-01-29T15:02:46.680Z,26.98
2023-01-29T15:05:49.326Z,25.85
2023-01-29T15:09:00.407Z,25.08
2023-01-29T15:12:46.255Z,26.30
2023-01-29T15:15:54.024Z,25.88
2023-01-29T15:19:06.783Z,25.95
2023-01-29T15:22:13.384Z,26.80
2023-01-29T15:25:15.845Z,26.10
2023-01-29T15:28:17.520Z,26.07
2023-01-29T15:31:20.262Z,29.40
2023-01-29T15:34:22.526Z,28.80
2023-01-29T15:37:32.458Z,27.80
2023-01-29T15:40:34.754Z,27.63
2023-01-29T15:43:42.760Z,27.50
2023-01-29T15:46:52.873Z,27.33
2023-01-29T15:49:55.349Z,25.73
2023-01-29T15:53:00.225Z,26.85
2023-01-29T15:56:02.493Z,29.27
2023-01-29T15:59:09.682Z,27.83
2023-01-29T16:02:38.762Z,27.10
2023-01-29T16:05:41.117Z,30.02
2023-01-29T16:08:46.371Z,32.22
2023-01-29T16:11:48.515Z,30.73
2023-01-29T16:14:51.175Z,30.35
2023-01-29T16:17:53.149Z,30.63
2023-01-29T16:20:56.337Z,30.10
2023-01-29T16:24:12.850Z,32.45
2023-01-29T16:27:14.552Z,30.42
2023-01-29T16:30:17.189Z,30.90
2023-01-29T16:33:18.658Z,30.23
2023-01-29T16:36:25.586Z,30.85
2023-01-29T16:39:34.142Z,30.90
2023-01-29T16:42:35.592Z,29.95
2023-01-29T16:45:37.094Z,26.92
2023-01-29T16:48:38.570Z,28.48
2023-01-29T16:51:40.023Z,28.13
2023-01-29T16:54:44.534Z,29.33
2023-01-29T16:57:52.440Z,30.05
2023-01-29T17:01:03.259Z,31.30
2023-01-29T17:04:17.044Z,30.08
2023-01-29T17:07:19.311Z,29.73
2023-01-29T17:10:21.756Z,28.95
2023-01-29T17:13:41.698Z,29.23
2023-01-29T17:17:07.577Z,30.27
2023-01-29T17:20:14.699Z,28.67
2023-01-29T17:23:17.022Z,30.77
2023-01-29T17:26:19.850Z,30.08
2023-01-29T17:29:27.017Z,30.08
2023-01-29T17:32:44.031Z,28.98
2023-01-29T17:35:46.715Z,29.20
2023-01-29T17:38:48.156Z,30.10
2023-01-29T17:41:51.620Z,29.05
2023-01-29T17:47:54.533Z,29.88
2023-01-29T17:50:58.902Z,29.83
2023-01-29T17:54:00.414Z,27.67
2023-01-29T17:57:01.866Z,26.33
2023-01-29T18:00:04.614Z,27.23
2023-01-29T18:03:08.097Z,26.63
2023-01-29T18:06:10.550Z,27.38
2023-01-29T18:09:16.806Z,28.08
2023-01-29T18:12:18.287Z,28.23
2023-01-29T18:15:20.106Z,29.77
2023-01-29T18:18:23.765Z,30.45
2023-01-29T18:21:25.253Z,30.00
2023-01-29T18:24:26.890Z,32.25
2023-01-29T18:27:28.393Z,30.17
2023-01-29T18:30:30.057Z,30.67
2023-01-29T18:33:31.616Z,29.25
2023-01-29T18:36:33.126Z,30.08
2023-01-29T18:39:34.608Z,29.50
2023-01-29T18:42:36.082Z,31.23
2023-01-29T18:45:37.629Z,32.05
2023-01-29T18:48:41.614Z,31.90
2023-01-29T18:51:43.804Z,33.30
2023-01-29T18:54:45.237Z,33.67
2023-01-29T18:58:26.740Z,34.03
2023-01-29T19:01:12.287Z,34.88
2023-01-29T19:04:13.873Z,35.72
2023-01-29T19:07:15.423Z,37.72
2023-01-29T19:10:17.097Z,39.28
2023-01-29T19:13:18.568Z,39.67
2023-01-29T19:16:20.474Z,38.92
2023-01-29T19:19:21.950Z,39.53
2023-01-29T19:22:23.425Z,37.60
2023-01-29T19:25:24.962Z,36.00
2023-01-29T19:28:26.436Z,37.63
2023-01-29T19:31:28.332Z,37.83
2023-01-29T19:34:29.819Z,33.25
2023-01-29T19:37:31.358Z,38.50
2023-01-29T19:40:32.844Z,39.10
2023-01-29T19:43:34.339Z,40.80
2023-01-29T19:46:36.256Z,39.72
2023-01-29T19:49:38.040Z,38.92
2023-01-29T19:52:50.589Z,38.58
2023-01-29T19:56:00.109Z,40.50
2023-01-29T19:59:01.656Z,39.15
2023-01-29T20:02:03.204Z,35.90
2023-01-29T20:05:05.098Z,38.88
2023-01-29T20:08:06.603Z,38.90
2023-01-29T20:11:08.465Z,38.88
2023-01-29T20:14:09.924Z,37.88
2023-01-29T20:17:11.909Z,36.53
2023-01-29T20:20:13.384Z,38.55
2023-01-29T20:23:27.989Z,39.60
2023-01-29T20:26:36.941Z,37.90
2023-01-29T20:29:39.186Z,37.10
2023-01-29T20:32:40.637Z,37.47
2023-01-29T20:35:42.081Z,39.05
2023-01-29T20:38:43.497Z,37.67
2023-01-29T20:41:44.980Z,36.85
2023-01-29T20:44:46.400Z,35.63
2023-01-29T20:47:48.726Z,37.35
2023-01-29T20:50:50.203Z,37.38
2023-01-29T20:53:51.735Z,37.65
2023-01-29T20:56:53.327Z,37.97
2023-01-29T20:59:54.919Z,36.13
2023-01-29T21:02:56.343Z,35.55
2023-01-29T21:05:57.830Z,35.38
2023-01-29T21:08:59.248Z,34.10
2023-01-29T21:12:00.909Z,32.17
2023-01-29T21:15:02.417Z,33.15
2023-01-29T21:18:06.142Z,34.72
2023-01-29T21:21:07.650Z,34.38
2023-01-29T21:24:09.388Z,32.97
2023-01-29T21:27:10.845Z,34.08
2023-01-29T21:30:12.519Z,34.22
2023-01-29T21:33:13.966Z,33.47
2023-01-29T21:36:15.463Z,33.10
2023-01-29T21:39:16.943Z,32.15
2023-01-29T21:42:18.405Z,31.95
2023-01-29T21:45:19.986Z,33.25
2023-01-29T21:48:21.585Z,32.05
2023-01-29T21:51:23.059Z,31.83
2023-01-29T21:54:24.484Z,31.10
2023-01-29T21:57:26.031Z,32.28
2023-01-29T22:00:28.036Z,30.40
2023-01-29T22:03:29.463Z,30.83
2023-01-29T22:06:30.919Z,31.17
2023-01-29T22:09:32.374Z,31.73
2023-01-29T22:12:34.082Z,31.80
2023-01-29T22:15:35.496Z,31.45
2023-01-29T22:18:36.964Z,31.85
2023-01-29T22:21:38.508Z,30.63
2023-01-29T22:24:40.586Z,32.97
2023-01-29T22:27:42.003Z,31.55
2023-01-29T22:30:43.693Z,30.58
2023-01-29T22:33:45.213Z,31.48
2023-01-29T22:36:46.671Z,31.25
2023-01-29T22:39:48.105Z,32.17
2023-01-29T22:42:49.562Z,30.65
2023-01-29T22:45:51.095Z,31.95
2023-01-29T22:48:52.584Z,28.88
2023-01-29T22:51:54.049Z,30.58
2023-01-29T22:54:55.540Z,32.28
2023-01-29T22:57:57.110Z,30.67
2023-01-29T23:00:58.565Z,32.03
2023-01-29T23:04:00.031Z,25.98
2023-01-29T23:07:01.516Z,28.50
2023-01-29T23:10:03.673Z,29.88
2023-01-29T23:13:05.156Z,29.05
2023-01-29T23:16:06.693Z,30.98
2023-01-29T23:19:08.239Z,29.25
2023-01-29T23:22:09.722Z,29.58
2023-01-29T23:25:11.242Z,29.23
2023-01-29T23:28:13.105Z,28.83
2023-01-29T23:31:14.911Z,28.02
2023-01-29T23:34:16.378Z,29.23
2023-01-29T23:37:17.789Z,29.92
2023-01-29T23:40:19.590Z,28.15
2023-01-29T23:43:21.082Z,26.80
2023-01-29T23:46:22.797Z,29.35
2023-01-29T23:49:24.229Z,28.50
2023-01-29T23:52:25.678Z,27.63
2023-01-29T23:55:27.152Z,29.83
2023-01-29T23:58:29.464Z,29.02
